createdAt,value
2022-10-17T00:01:11.279Z,3.8406
2022-10-17T00:06:22.966Z,3.8454
2022-10-17T00:11:34.969Z,3.8357
2022-10-17T00:16:46.815Z,3.8454
2022-10-17T00:27:10.528Z,3.8357
2022-10-17T00:32:22.565Z,3.8357
2022-10-17T00:37:34.625Z,3.8357
2022-10-17T00:42:46.509Z,3.8357
2022-10-17T00:53:10.865Z,3.8308
2022-10-17T00:58:22.580Z,3.8308
2022-10-17T01:03:34.465Z,3.8259
2022-10-17T01:08:46.260Z,3.8259
2022-10-17T01:19:09.826Z,3.8308
2022-10-17T01:24:21.806Z,3.8259
2022-10-17T01:29:34.089Z,3.8259
2022-10-17T01:34:45.915Z,3.8308
2022-10-17T01:39:57.915Z,3.821
2022-10-17T01:45:09.956Z,3.821
2022-10-17T01:50:22.036Z,3.821
2022-10-17T01:55:33.860Z,3.821
2022-10-17T02:00:46.260Z,3.8162
2022-10-17T02:11:17.245Z,3.8162
2022-10-17T02:16:33.620Z,3.8113
2022-10-17T02:21:45.605Z,3.8113
2022-10-17T02:32:09.618Z,3.8064
2022-10-17T02:37:21.383Z,3.8113
2022-10-17T02:42:33.820Z,3.8064
2022-10-17T02:47:45.737Z,3.7966
2022-10-17T02:58:09.227Z,3.7966
2022-10-17T03:03:21.189Z,3.7966
2022-10-17T03:08:33.284Z,3.7918
2022-10-17T03:13:44.983Z,3.7918
2022-10-17T03:24:08.717Z,3.7869
2022-10-17T03:29:20.432Z,3.7869
2022-10-17T03:34:33.171Z,3.7869
2022-10-17T03:39:44.670Z,3.7771
2022-10-17T03:50:08.460Z,3.7771
2022-10-17T03:55:20.318Z,3.7869
2022-10-17T04:00:32.077Z,3.7771
2022-10-17T04:05:43.942Z,3.7722
2022-10-17T04:10:55.735Z,3.7722
2022-10-17T04:16:07.571Z,3.7674
2022-10-17T04:21:19.499Z,3.7674
2022-10-17T04:26:31.251Z,3.7674
2022-10-17T04:31:43.062Z,3.7625
2022-10-17T04:36:54.851Z,3.7576
2022-10-17T04:42:06.685Z,3.7576
2022-10-17T04:47:18.444Z,3.7625
2022-10-17T04:52:32.549Z,3.7527
2022-10-17T04:57:43.649Z,3.7625
2022-10-17T05:02:55.529Z,3.7527
2022-10-17T05:08:07.573Z,3.7478
2022-10-17T05:13:19.212Z,3.7478
2022-10-17T05:18:30.969Z,3.7478
2022-10-17T05:23:42.991Z,3.7381
2022-10-17T05:28:55.393Z,3.7381
2022-10-17T05:34:14.588Z,3.7332
2022-10-17T05:39:28.981Z,3.7283
2022-10-17T05:44:40.627Z,3.7283
2022-10-17T05:49:53.668Z,3.7234
2022-10-17T06:00:17.217Z,3.7186
2022-10-17T06:05:29.065Z,3.7137
2022-10-17T06:10:40.982Z,3.7137
2022-10-17T06:15:52.986Z,3.7088
2022-10-17T06:26:16.902Z,3.7039
2022-10-17T06:31:28.646Z,3.7039
2022-10-17T06:36:40.636Z,3.7039
2022-10-17T06:41:52.621Z,3.699
2022-10-17T06:52:16.596Z,3.6942
2022-10-17T06:57:30.643Z,3.6893
2022-10-17T07:02:42.077Z,3.6795
2022-10-17T07:07:53.915Z,3.6795
2022-10-17T07:18:25.895Z,3.6746
2022-10-17T07:23:39.967Z,3.6746
2022-10-17T07:28:52.007Z,3.6698
2022-10-17T07:39:15.696Z,3.6698
2022-10-17T07:44:27.871Z,3.6649
2022-10-17T07:49:39.993Z,3.6649
2022-10-17T07:54:51.994Z,3.6649
2022-10-17T08:05:15.825Z,3.66
2022-10-17T08:10:27.904Z,3.6551
2022-10-17T08:15:39.878Z,3.6551
2022-10-17T08:20:58.052Z,3.6502
2022-10-17T08:26:15.288Z,3.6454
2022-10-17T08:31:27.651Z,3.6454
2022-10-17T08:36:39.500Z,3.6405
2022-10-17T08:41:51.481Z,3.6405
2022-10-17T08:52:15.805Z,3.6454
2022-10-17T08:57:30.580Z,3.6356
2022-10-17T09:02:44.490Z,3.6454
2022-10-17T09:07:56.136Z,3.6356
2022-10-17T09:13:08.906Z,3.6356
2022-10-17T09:18:23.223Z,3.6307
2022-10-17T09:23:41.742Z,3.6307
2022-10-17T09:28:54.651Z,3.621
2022-10-17T09:34:07.007Z,3.6161
2022-10-17T09:39:19.214Z,3.6161
2022-10-17T09:44:31.659Z,3.6161
2022-10-17T09:49:43.885Z,3.6161
2022-10-17T09:54:55.990Z,3.6161
2022-10-17T10:00:08.665Z,3.6161
2022-10-17T10:05:21.103Z,3.6112
2022-10-17T10:10:33.151Z,3.6112
2022-10-17T10:15:45.301Z,3.6112
2022-10-17T10:31:24.901Z,3.6063
2022-10-17T10:36:38.276Z,3.6063
2022-10-17T10:41:50.219Z,3.6063
2022-10-17T10:52:14.982Z,3.6014
2022-10-17T10:57:29.277Z,3.6014
2022-10-17T11:02:43.446Z,3.6063
2022-10-17T11:07:56.035Z,3.6112
2022-10-17T11:13:11.733Z,3.7771
2022-10-17T11:18:26.726Z,3.8308
2022-10-17T11:23:41.292Z,3.8747
2022-10-17T11:28:55.816Z,3.8991
2022-10-17T11:34:09.268Z,3.9235
2022-10-17T11:39:22.346Z,3.9333
2022-10-17T11:44:35.558Z,3.9382
2022-10-17T11:49:54.036Z,3.943
2022-10-17T12:00:20.592Z,3.9479
2022-10-17T12:05:33.208Z,3.9577
2022-10-17T12:15:56.253Z,3.9626
2022-10-17T12:26:20.239Z,3.9577
2022-10-17T12:36:46.903Z,3.9626
2022-10-17T12:57:37.653Z,3.9674
2022-10-17T14:41:45.274Z,3.9821
2022-10-17T15:02:23.430Z,3.987
2022-10-17T15:07:36.015Z,3.9821
2022-10-17T15:13:36.770Z,3.987
2022-10-17T15:18:46.811Z,3.987
2022-10-17T17:45:20.821Z,3.9577
2022-10-17T17:50:33.099Z,3.9577
2022-10-17T17:55:45.070Z,3.9577
2022-10-17T18:00:57.849Z,3.9577
2022-10-17T18:06:10.119Z,3.9577
2022-10-17T18:11:23.340Z,3.9577
2022-10-17T18:16:35.160Z,3.9577
2022-10-17T18:21:47.227Z,3.9577
2022-10-17T18:37:24.456Z,3.9577
2022-10-17T18:42:36.507Z,3.9577
2022-10-17T18:47:48.789Z,3.9528
2022-10-17T18:58:12.698Z,3.9577
2022-10-17T19:03:25.130Z,3.9528
2022-10-17T19:08:37.299Z,3.9528
2022-10-17T19:13:49.630Z,3.9528
2022-10-17T19:24:13.800Z,3.9479
2022-10-17T19:29:26.139Z,3.9528
2022-10-17T19:34:38.370Z,3.9479
2022-10-17T19:39:50.433Z,3.9479
2022-10-17T19:50:14.513Z,3.9479
2022-10-17T19:55:26.638Z,3.9577
2022-10-17T20:00:38.737Z,3.9479
2022-10-17T20:05:50.841Z,3.9479
2022-10-17T20:16:14.681Z,3.9479
2022-10-17T20:21:26.675Z,3.9479
2022-10-17T20:26:40.888Z,3.9479
2022-10-17T20:31:52.130Z,3.9479
2022-10-17T20:42:16.341Z,3.9479
2022-10-17T20:47:53.519Z,3.943
2022-10-17T23:39:55.462Z,3.0354
2022-10-17T23:45:09.469Z,3.0451
2022-10-17T23:50:24.022Z,3.0158
2022-10-17T23:55:38.821Z,3.0451
